Captain Duane Patrick — WDE8361 — position and weather

sailwx.info

Track history (hours):
 
Tides and Currents Weather Stations Pressure Air Temp Water Temp Dewpoint Dewpoint Depression Visibility Wind Speed Wind Dir Waves Ship Positions

Captain Duane Patrick

Owner: Lafayette Workboat Rentals LLC., Broussard, LA. More information available from US FCC via Universal Licensing System and Coast Guard Vessel Documentation Center.

Last reported at 2017-Dec-10 21:42 UTC. Time now 2017-Dec-12 06:10 UTC.
Position N 29°30' W 094°52'.

Length 18 m.

MMSI: 367404580.

Date/timePositionNaut miles runAvg speedWind from/ knotsBaromVisibWave heightAir tempDewpointWater temp
2017-Dec-10 21:42N 29°30' W 094°52'1 7.0
2017-Dec-10 21:30N 29°31' W 094°53'3 6.8
2017-Dec-10 21:00N 29°34' W 094°55'3 6.7
2017-Dec-10 20:30N 29°37' W 094°57'3 6.6
2017-Dec-10 20:00N 29°40' W 094°59'3 6.5
2017-Dec-10 19:30N 29°42' W 095°01'2 3.4
2017-Dec-10 19:00N 29°44' W 095°02'3 5.7
2017-Dec-10 18:25N 29°46' W 095°05'3 6.1
2017-Dec-10 17:59N 29°44' W 095°08'3 6.5
2017-Dec-10 17:28N 29°45' W 095°12'3 6.4
2017-Dec-10 16:58N 29°43' W 095°15'1 2.7
2017-Dec-10 16:30N 29°43' W 095°16'0 0.1
2017-Dec-10 16:00N 29°43' W 095°16'0 0.0
2017-Dec-10 15:30N 29°43' W 095°16'0 0.0
2017-Dec-10 15:00N 29°43' W 095°16'0 0.0
2017-Dec-10 14:30N 29°43' W 095°16'0 0.0
2017-Dec-10 13:59N 29°43' W 095°16'0 0.0
2017-Dec-10 13:30N 29°43' W 095°16'0 0.0
2017-Dec-10 13:00N 29°43' W 095°16'0 0.0
2017-Dec-10 12:30N 29°43' W 095°16'0 0.0
2017-Dec-10 12:00N 29°43' W 095°16'0 0.0
2017-Dec-10 11:29N 29°43' W 095°16'0 0.0
2017-Dec-10 11:00N 29°43' W 095°16'0 0.0
2017-Dec-10 10:30N 29°43' W 095°16'0 0.0
2017-Dec-10 10:00N 29°43' W 095°16'0 0.0
2017-Dec-10 09:30N 29°43' W 095°16'0 0.0
2017-Dec-10 09:00N 29°43' W 095°16'0 0.0
2017-Dec-10 08:30N 29°43' W 095°16'0 0.0
2017-Dec-10 08:00N 29°43' W 095°16'0 0.0
2017-Dec-10 07:30N 29°43' W 095°16'0 0.0
2017-Dec-10 07:00N 29°43' W 095°16'0 0.0
2017-Dec-10 06:29N 29°43' W 095°16'0 0.0
2017-Dec-10 06:00N 29°43' W 095°16'0 0.0
2017-Dec-10 05:30N 29°43' W 095°16'0 0.0
2017-Dec-10 05:00N 29°43' W 095°16'0 0.0
2017-Dec-10 04:30N 29°43' W 095°16'0 0.0
2017-Dec-10 04:00N 29°43' W 095°16'0 0.0
2017-Dec-10 03:30N 29°43' W 095°16'0 0.0
2017-Dec-10 03:00N 29°43' W 095°16'0 0.0
2017-Dec-10 02:30N 29°43' W 095°16'0 0.0
2017-Dec-10 02:00N 29°43' W 095°16'0 0.0
2017-Dec-10 01:29N 29°43' W 095°16'0 0.0
2017-Dec-10 01:00N 29°43' W 095°16'0 0.0
2017-Dec-10 00:30N 29°43' W 095°16'0 0.0
2017-Dec-10 00:00N 29°43' W 095°16'0 0.0
2017-Dec-09 23:30N 29°43' W 095°16'0 0.0
2017-Dec-09 23:00N 29°43' W 095°16'0 0.0
2017-Dec-09 22:30N 29°43' W 095°16'0 0.0
2017-Dec-09 22:00N 29°43' W 095°16'0 0.0
2017-Dec-09 21:30N 29°43' W 095°16'0 0.0
2017-Dec-09 20:59N 29°43' W 095°16'0 0.0
2017-Dec-09 20:30N 29°43' W 095°16'0 0.1
2017-Dec-09 20:00N 29°43' W 095°16'0 0.0
2017-Dec-09 19:30N 29°43' W 095°16'0 0.0
2017-Dec-09 19:00N 29°43' W 095°16'0 0.0
2017-Dec-09 18:30N 29°43' W 095°16'0 0.0
2017-Dec-09 18:00N 29°43' W 095°16'0 0.0
2017-Dec-09 17:30N 29°43' W 095°16'0 0.0
2017-Dec-09 17:00N 29°43' W 095°16'0 0.0
2017-Dec-09 16:30N 29°43' W 095°16'0 0.0
2017-Dec-09 16:00N 29°43' W 095°16'0 0.0
2017-Dec-09 15:30N 29°43' W 095°16'0 0.0
2017-Dec-09 15:00N 29°43' W 095°16'0 0.0
2017-Dec-09 14:30N 29°43' W 095°16'0 0.0
2017-Dec-09 14:00N 29°43' W 095°16'0 0.0
2017-Dec-09 13:30N 29°43' W 095°16'0 0.0
2017-Dec-09 13:00N 29°43' W 095°16'0 0.0
2017-Dec-09 12:30N 29°43' W 095°16'0 0.0
2017-Dec-09 12:00N 29°43' W 095°16'0 0.0
2017-Dec-09 11:30N 29°43' W 095°16'0 0.0
2017-Dec-09 11:00N 29°43' W 095°16'0 0.0
2017-Dec-09 10:30N 29°43' W 095°16'0 0.0
2017-Dec-09 10:00N 29°43' W 095°16'0 0.0
2017-Dec-09 09:30N 29°43' W 095°16'0 0.0
2017-Dec-09 09:00N 29°43' W 095°16'0 0.0
2017-Dec-09 08:30N 29°43' W 095°16'0 0.0
2017-Dec-09 08:00N 29°43' W 095°16'0 0.0
2017-Dec-09 07:30N 29°43' W 095°16'0 0.0
2017-Dec-09 07:00N 29°43' W 095°16'0 0.0
2017-Dec-09 06:30N 29°43' W 095°16'0 0.0
2017-Dec-09 06:00N 29°43' W 095°16'0 0.0
2017-Dec-09 05:30N 29°43' W 095°16'0 0.0
2017-Dec-09 05:00N 29°43' W 095°16'0 0.0
2017-Dec-09 04:30N 29°43' W 095°16'0 0.0
2017-Dec-09 04:00N 29°43' W 095°16'0 0.0
2017-Dec-09 03:30N 29°43' W 095°16'0 0.0
2017-Dec-09 03:00N 29°43' W 095°16'0 0.0
2017-Dec-09 02:30N 29°43' W 095°16'0 0.0
2017-Dec-09 02:00N 29°43' W 095°16'0 0.0
2017-Dec-09 01:30N 29°43' W 095°16'0 0.0
2017-Dec-09 01:00N 29°43' W 095°16'0 0.0
2017-Dec-09 00:30N 29°43' W 095°16'0 0.0
2017-Dec-09 00:00N 29°43' W 095°16'0 0.0
2017-Dec-08 23:30N 29°43' W 095°16'0 0.0
2017-Dec-08 23:00N 29°43' W 095°16'0 0.0
2017-Dec-08 22:30N 29°43' W 095°16'0 0.0
2017-Dec-08 22:00N 29°43' W 095°16'0 0.0
2017-Dec-08 21:30N 29°43' W 095°16'0 0.0
2017-Dec-08 21:00N 29°43' W 095°16'0 0.0
2017-Dec-08 20:09N 29°43' W 095°16'0 0.1
2017-Dec-08 20:00N 29°43' W 095°16'0 0.0
2017-Dec-08 19:30N 29°43' W 095°16'0 0.0
2017-Dec-08 19:00N 29°43' W 095°16'0 0.0
2017-Dec-08 18:30N 29°43' W 095°16'0 0.0
2017-Dec-08 18:00N 29°43' W 095°16'0 0.0
2017-Dec-08 17:30N 29°43' W 095°16'0 0.0
2017-Dec-08 17:00N 29°43' W 095°16'0 0.0
2017-Dec-08 16:30N 29°43' W 095°16'0 0.0
2017-Dec-08 16:00N 29°43' W 095°16'0 0.0
2017-Dec-08 15:30N 29°43' W 095°16'0 0.0
2017-Dec-08 15:00N 29°43' W 095°16'0 0.0
2017-Dec-08 14:30N 29°43' W 095°16'0 0.0
2017-Dec-08 14:00N 29°43' W 095°16'0 0.0
2017-Dec-08 13:30N 29°43' W 095°16'0 0.0
2017-Dec-08 13:00N 29°43' W 095°16'0 0.0
2017-Dec-08 12:30N 29°43' W 095°16'0 0.0
2017-Dec-08 12:00N 29°43' W 095°16'0 0.0
2017-Dec-08 11:30N 29°43' W 095°16'0 0.0
2017-Dec-08 11:00N 29°43' W 095°16'0 0.0
2017-Dec-08 10:30N 29°43' W 095°16'0 0.0
2017-Dec-08 10:00N 29°43' W 095°16'0 0.0
2017-Dec-08 09:30N 29°43' W 095°16'0 0.0
2017-Dec-08 09:00N 29°43' W 095°16'0 0.0
2017-Dec-08 08:30N 29°43' W 095°16'0 0.0
2017-Dec-08 08:00N 29°43' W 095°16'0 0.0
2017-Dec-08 07:30N 29°43' W 095°16'0 0.0
2017-Dec-08 07:00N 29°43' W 095°16'0 0.0
2017-Dec-08 06:30N 29°43' W 095°16'0 0.0
2017-Dec-08 06:00N 29°43' W 095°16'0 0.0
2017-Dec-08 05:30N 29°43' W 095°16'0 0.0
2017-Dec-08 05:00N 29°43' W 095°16'0 0.0
2017-Dec-08 04:30N 29°43' W 095°16'0 0.0
2017-Dec-08 04:00N 29°43' W 095°16'0 0.0
2017-Dec-08 03:30N 29°43' W 095°16'0 0.0
2017-Dec-08 03:00N 29°43' W 095°16'0 0.4
2017-Dec-08 02:30N 29°43' W 095°16'2 3.7
2017-Dec-08 02:00N 29°43' W 095°14'3 5.6
2017-Dec-08 01:30N 29°45' W 095°11'4 6.0
2017-Dec-08 00:54N 29°44' W 095°07'2 2.0
2017-Dec-07 23:50N 29°46' W 095°06'3 4.3
2017-Dec-07 23:09N 29°44' W 095°03'2 6.8
2017-Dec-07 22:49N 29°43' W 095°01'2 6.0
2017-Dec-07 22:30N 29°42' W 094°60'3 6.8
2017-Dec-07 22:00N 29°39' W 094°58'4 7.5
2017-Dec-07 21:30N 29°35' W 094°56'4 7.5
2017-Dec-07 21:00N 29°32' W 094°54'  
2017-Dec-04 10:31N 29°43' W 095°16'0 0.0
2017-Dec-04 10:00N 29°43' W 095°16'0 0.0
2017-Dec-04 09:30N 29°43' W 095°16'0 0.0
2017-Dec-04 09:00N 29°43' W 095°16'0 0.0
2017-Dec-04 08:30N 29°43' W 095°16'0 0.0
2017-Dec-04 08:00N 29°43' W 095°16'0 0.0
2017-Dec-04 07:30N 29°43' W 095°16'0 0.0
2017-Dec-04 07:01N 29°43' W 095°16'0 0.0
2017-Dec-04 06:30N 29°43' W 095°16'0 0.0
2017-Dec-04 06:00N 29°43' W 095°16'0 0.0
2017-Dec-04 05:30N 29°43' W 095°16'0 0.0
2017-Dec-04 05:00N 29°43' W 095°16'0 0.0
2017-Dec-04 04:30N 29°43' W 095°16'0 0.0
2017-Dec-04 04:00N 29°43' W 095°16'0 0.0
2017-Dec-04 03:30N 29°43' W 095°16'0 0.0
2017-Dec-04 03:00N 29°43' W 095°16'0 0.0
2017-Dec-04 02:30N 29°43' W 095°16'0 0.0
2017-Dec-04 02:00N 29°43' W 095°16'0 0.0
2017-Dec-04 01:30N 29°43' W 095°16'0 0.0
2017-Dec-04 01:00N 29°43' W 095°16'0 0.2
2017-Dec-04 00:30N 29°43' W 095°16'3 5.7
2017-Dec-03 23:59N 29°43' W 095°13'3 7.1
2017-Dec-03 23:30N 29°44' W 095°09'5 7.0
2017-Dec-03 22:49N 29°45' W 095°04'3 7.6
2017-Dec-03 22:29N 29°43' W 095°01'4 8.3
2017-Dec-03 22:00N 29°40' W 094°58'4 8.9
2017-Dec-03 21:30N 29°36' W 094°57'4 9.0
2017-Dec-03 21:01N 29°32' W 094°54'  
2017-Nov-30 21:42N 29°31' W 094°53'  
Track history (hours):
 
Tides and Currents Weather Stations Pressure Air Temp Water Temp Dewpoint Dewpoint Depression Visibility Wind Speed Wind Dir Waves Ship Positions

Captain Duane Patrick

Owner: Lafayette Workboat Rentals LLC., Broussard, LA. More information available from US FCC via Universal Licensing System and Coast Guard Vessel Documentation Center.

Last reported at 2017-Dec-10 21:42 UTC. Time now 2017-Dec-12 06:10 UTC.
Position N 29°30' W 094°52'.

Length 18 m.

MMSI: 367404580.

Date/timePositionNaut miles runAvg speedWind from/ knotsBaromVisibWave heightAir tempDewpointWater temp
2017-Dec-10 21:42N 29°30' W 094°52'1 7.0
2017-Dec-10 21:30N 29°31' W 094°53'3 6.8
2017-Dec-10 21:00N 29°34' W 094°55'3 6.7
2017-Dec-10 20:30N 29°37' W 094°57'3 6.6
2017-Dec-10 20:00N 29°40' W 094°59'3 6.5
2017-Dec-10 19:30N 29°42' W 095°01'2 3.4
2017-Dec-10 19:00N 29°44' W 095°02'3 5.7
2017-Dec-10 18:25N 29°46' W 095°05'3 6.1
2017-Dec-10 17:59N 29°44' W 095°08'3 6.5
2017-Dec-10 17:28N 29°45' W 095°12'3 6.4
2017-Dec-10 16:58N 29°43' W 095°15'1 2.7
2017-Dec-10 16:30N 29°43' W 095°16'0 0.1
2017-Dec-10 16:00N 29°43' W 095°16'0 0.0
2017-Dec-10 15:30N 29°43' W 095°16'0 0.0
2017-Dec-10 15:00N 29°43' W 095°16'0 0.0
2017-Dec-10 14:30N 29°43' W 095°16'0 0.0
2017-Dec-10 13:59N 29°43' W 095°16'0 0.0
2017-Dec-10 13:30N 29°43' W 095°16'0 0.0
2017-Dec-10 13:00N 29°43' W 095°16'0 0.0
2017-Dec-10 12:30N 29°43' W 095°16'0 0.0
2017-Dec-10 12:00N 29°43' W 095°16'0 0.0
2017-Dec-10 11:29N 29°43' W 095°16'0 0.0
2017-Dec-10 11:00N 29°43' W 095°16'0 0.0
2017-Dec-10 10:30N 29°43' W 095°16'0 0.0
2017-Dec-10 10:00N 29°43' W 095°16'0 0.0
2017-Dec-10 09:30N 29°43' W 095°16'0 0.0
2017-Dec-10 09:00N 29°43' W 095°16'0 0.0
2017-Dec-10 08:30N 29°43' W 095°16'0 0.0
2017-Dec-10 08:00N 29°43' W 095°16'0 0.0
2017-Dec-10 07:30N 29°43' W 095°16'0 0.0
2017-Dec-10 07:00N 29°43' W 095°16'0 0.0
2017-Dec-10 06:29N 29°43' W 095°16'0 0.0
2017-Dec-10 06:00N 29°43' W 095°16'0 0.0
2017-Dec-10 05:30N 29°43' W 095°16'0 0.0
2017-Dec-10 05:00N 29°43' W 095°16'0 0.0
2017-Dec-10 04:30N 29°43' W 095°16'0 0.0
2017-Dec-10 04:00N 29°43' W 095°16'0 0.0
2017-Dec-10 03:30N 29°43' W 095°16'0 0.0
2017-Dec-10 03:00N 29°43' W 095°16'0 0.0
2017-Dec-10 02:30N 29°43' W 095°16'0 0.0
2017-Dec-10 02:00N 29°43' W 095°16'0 0.0
2017-Dec-10 01:29N 29°43' W 095°16'0 0.0
2017-Dec-10 01:00N 29°43' W 095°16'0 0.0
2017-Dec-10 00:30N 29°43' W 095°16'0 0.0
2017-Dec-10 00:00N 29°43' W 095°16'0 0.0
2017-Dec-09 23:30N 29°43' W 095°16'0 0.0
2017-Dec-09 23:00N 29°43' W 095°16'0 0.0
2017-Dec-09 22:30N 29°43' W 095°16'0 0.0
2017-Dec-09 22:00N 29°43' W 095°16'0 0.0
2017-Dec-09 21:30N 29°43' W 095°16'0 0.0
2017-Dec-09 20:59N 29°43' W 095°16'0 0.0
2017-Dec-09 20:30N 29°43' W 095°16'0 0.1
2017-Dec-09 20:00N 29°43' W 095°16'0 0.0
2017-Dec-09 19:30N 29°43' W 095°16'0 0.0
2017-Dec-09 19:00N 29°43' W 095°16'0 0.0
2017-Dec-09 18:30N 29°43' W 095°16'0 0.0
2017-Dec-09 18:00N 29°43' W 095°16'0 0.0
2017-Dec-09 17:30N 29°43' W 095°16'0 0.0
2017-Dec-09 17:00N 29°43' W 095°16'0 0.0
2017-Dec-09 16:30N 29°43' W 095°16'0 0.0
2017-Dec-09 16:00N 29°43' W 095°16'0 0.0
2017-Dec-09 15:30N 29°43' W 095°16'0 0.0
2017-Dec-09 15:00N 29°43' W 095°16'0 0.0
2017-Dec-09 14:30N 29°43' W 095°16'0 0.0
2017-Dec-09 14:00N 29°43' W 095°16'0 0.0
2017-Dec-09 13:30N 29°43' W 095°16'0 0.0
2017-Dec-09 13:00N 29°43' W 095°16'0 0.0
2017-Dec-09 12:30N 29°43' W 095°16'0 0.0
2017-Dec-09 12:00N 29°43' W 095°16'0 0.0
2017-Dec-09 11:30N 29°43' W 095°16'0 0.0
2017-Dec-09 11:00N 29°43' W 095°16'0 0.0
2017-Dec-09 10:30N 29°43' W 095°16'0 0.0
2017-Dec-09 10:00N 29°43' W 095°16'0 0.0
2017-Dec-09 09:30N 29°43' W 095°16'0 0.0
2017-Dec-09 09:00N 29°43' W 095°16'0 0.0
2017-Dec-09 08:30N 29°43' W 095°16'0 0.0
2017-Dec-09 08:00N 29°43' W 095°16'0 0.0
2017-Dec-09 07:30N 29°43' W 095°16'0 0.0
2017-Dec-09 07:00N 29°43' W 095°16'0 0.0
2017-Dec-09 06:30N 29°43' W 095°16'0 0.0
2017-Dec-09 06:00N 29°43' W 095°16'0 0.0
2017-Dec-09 05:30N 29°43' W 095°16'0 0.0
2017-Dec-09 05:00N 29°43' W 095°16'0 0.0
2017-Dec-09 04:30N 29°43' W 095°16'0 0.0
2017-Dec-09 04:00N 29°43' W 095°16'0 0.0
2017-Dec-09 03:30N 29°43' W 095°16'0 0.0
2017-Dec-09 03:00N 29°43' W 095°16'0 0.0
2017-Dec-09 02:30N 29°43' W 095°16'0 0.0
2017-Dec-09 02:00N 29°43' W 095°16'0 0.0
2017-Dec-09 01:30N 29°43' W 095°16'0 0.0
2017-Dec-09 01:00N 29°43' W 095°16'0 0.0
2017-Dec-09 00:30N 29°43' W 095°16'0 0.0
2017-Dec-09 00:00N 29°43' W 095°16'0 0.0
2017-Dec-08 23:30N 29°43' W 095°16'0 0.0
2017-Dec-08 23:00N 29°43' W 095°16'0 0.0
2017-Dec-08 22:30N 29°43' W 095°16'0 0.0
2017-Dec-08 22:00N 29°43' W 095°16'0 0.0
2017-Dec-08 21:30N 29°43' W 095°16'0 0.0
2017-Dec-08 21:00N 29°43' W 095°16'0 0.0
2017-Dec-08 20:09N 29°43' W 095°16'0 0.1
2017-Dec-08 20:00N 29°43' W 095°16'0 0.0
2017-Dec-08 19:30N 29°43' W 095°16'0 0.0
2017-Dec-08 19:00N 29°43' W 095°16'0 0.0
2017-Dec-08 18:30N 29°43' W 095°16'0 0.0
2017-Dec-08 18:00N 29°43' W 095°16'0 0.0
2017-Dec-08 17:30N 29°43' W 095°16'0 0.0
2017-Dec-08 17:00N 29°43' W 095°16'0 0.0
2017-Dec-08 16:30N 29°43' W 095°16'0 0.0
2017-Dec-08 16:00N 29°43' W 095°16'0 0.0
2017-Dec-08 15:30N 29°43' W 095°16'0 0.0
2017-Dec-08 15:00N 29°43' W 095°16'0 0.0
2017-Dec-08 14:30N 29°43' W 095°16'0 0.0
2017-Dec-08 14:00N 29°43' W 095°16'0 0.0
2017-Dec-08 13:30N 29°43' W 095°16'0 0.0
2017-Dec-08 13:00N 29°43' W 095°16'0 0.0
2017-Dec-08 12:30N 29°43' W 095°16'0 0.0
2017-Dec-08 12:00N 29°43' W 095°16'0 0.0
2017-Dec-08 11:30N 29°43' W 095°16'0 0.0
2017-Dec-08 11:00N 29°43' W 095°16'0 0.0
2017-Dec-08 10:30N 29°43' W 095°16'0 0.0
2017-Dec-08 10:00N 29°43' W 095°16'0 0.0
2017-Dec-08 09:30N 29°43' W 095°16'0 0.0
2017-Dec-08 09:00N 29°43' W 095°16'0 0.0
2017-Dec-08 08:30N 29°43' W 095°16'0 0.0
2017-Dec-08 08:00N 29°43' W 095°16'0 0.0
2017-Dec-08 07:30N 29°43' W 095°16'0 0.0
2017-Dec-08 07:00N 29°43' W 095°16'0 0.0
2017-Dec-08 06:30N 29°43' W 095°16'0 0.0
2017-Dec-08 06:00N 29°43' W 095°16'0 0.0
2017-Dec-08 05:30N 29°43' W 095°16'0 0.0
2017-Dec-08 05:00N 29°43' W 095°16'0 0.0
2017-Dec-08 04:30N 29°43' W 095°16'0 0.0
2017-Dec-08 04:00N 29°43' W 095°16'0 0.0
2017-Dec-08 03:30N 29°43' W 095°16'0 0.0
2017-Dec-08 03:00N 29°43' W 095°16'0 0.4
2017-Dec-08 02:30N 29°43' W 095°16'2 3.7
2017-Dec-08 02:00N 29°43' W 095°14'3 5.6
2017-Dec-08 01:30N 29°45' W 095°11'4 6.0
2017-Dec-08 00:54N 29°44' W 095°07'2 2.0
2017-Dec-07 23:50N 29°46' W 095°06'3 4.3
2017-Dec-07 23:09N 29°44' W 095°03'2 6.8
2017-Dec-07 22:49N 29°43' W 095°01'2 6.0
2017-Dec-07 22:30N 29°42' W 094°60'3 6.8
2017-Dec-07 22:00N 29°39' W 094°58'4 7.5
2017-Dec-07 21:30N 29°35' W 094°56'4 7.5
2017-Dec-07 21:00N 29°32' W 094°54'  
2017-Dec-04 10:31N 29°43' W 095°16'0 0.0
2017-Dec-04 10:00N 29°43' W 095°16'0 0.0
2017-Dec-04 09:30N 29°43' W 095°16'0 0.0
2017-Dec-04 09:00N 29°43' W 095°16'0 0.0
2017-Dec-04 08:30N 29°43' W 095°16'0 0.0
2017-Dec-04 08:00N 29°43' W 095°16'0 0.0
2017-Dec-04 07:30N 29°43' W 095°16'0 0.0
2017-Dec-04 07:01N 29°43' W 095°16'0 0.0
2017-Dec-04 06:30N 29°43' W 095°16'0 0.0
2017-Dec-04 06:00N 29°43' W 095°16'0 0.0
2017-Dec-04 05:30N 29°43' W 095°16'0 0.0
2017-Dec-04 05:00N 29°43' W 095°16'0 0.0
2017-Dec-04 04:30N 29°43' W 095°16'0 0.0
2017-Dec-04 04:00N 29°43' W 095°16'0 0.0
2017-Dec-04 03:30N 29°43' W 095°16'0 0.0
2017-Dec-04 03:00N 29°43' W 095°16'0 0.0
2017-Dec-04 02:30N 29°43' W 095°16'0 0.0
2017-Dec-04 02:00N 29°43' W 095°16'0 0.0
2017-Dec-04 01:30N 29°43' W 095°16'0 0.0
2017-Dec-04 01:00N 29°43' W 095°16'0 0.2
2017-Dec-04 00:30N 29°43' W 095°16'3 5.7
2017-Dec-03 23:59N 29°43' W 095°13'3 7.1
2017-Dec-03 23:30N 29°44' W 095°09'5 7.0
2017-Dec-03 22:49N 29°45' W 095°04'3 7.6
2017-Dec-03 22:29N 29°43' W 095°01'4 8.3
2017-Dec-03 22:00N 29°40' W 094°58'4 8.9
2017-Dec-03 21:30N 29°36' W 094°57'4 9.0
2017-Dec-03 21:01N 29°32' W 094°54'  
2017-Nov-30 21:42N 29°31' W 094°53'  

Dump ship's entire track history